Tawakoni's Hourly Summary for Saturday, March 18, 2017
Hour Temp
(f)
RH
(%)
Solar Rad.
(MJ/m2)
Rainfall
(in)
Wind
(mph)
3/18/2017 12:00 AM 70 64 0 0 5.8
3/18/2017 1:00 AM 69 65 0 0 8.87
3/18/2017 2:00 AM 67 71 0 0 8.95
3/18/2017 3:00 AM 65 77 0 0 7.32
3/18/2017 4:00 AM 64 83 0 0 5.88
3/18/2017 5:00 AM 63 88 0 0 5.43
3/18/2017 6:00 AM 62 90 0 0 5.81
3/18/2017 7:00 AM 61 93 0 0 5.67
3/18/2017 8:00 AM 62 94 0.02 0 5.51
3/18/2017 9:00 AM 63 89 0.24 0 7.38
3/18/2017 10:00 AM 64 88 0.45 0 7.58
3/18/2017 11:00 AM 66 84 0.64 0 7.62
3/18/2017 12:00 PM 67 81 0.73 0 5.82
3/18/2017 1:00 PM 68 79 0.79 0 3.73
3/18/2017 2:00 PM 69 74 0.85 0 4.54
3/18/2017 3:00 PM 71 68 1.53 0 4.84
3/18/2017 4:00 PM 73 64 1.83 0 4.9
3/18/2017 5:00 PM 74 61 1.13 0 4.88
3/18/2017 6:00 PM 76 59 1 0 5.34
3/18/2017 7:00 PM 75 58 0.56 0 4.92
3/18/2017 8:00 PM 72 63 0.06 0 2.45
3/18/2017 9:00 PM 66 80 0 0 2.21
3/18/2017 10:00 PM 66 81 0 0 3.41
3/18/2017 11:00 PM 65 84 0 0 3.87
Data Summary 67 76 9.83 0.00 5.53